In Rescue
 
Open Full Screen Window  High Contrast Mode
Wind Gusting 00 knots
14
November 14, 2019 12:53 PM CST
Weather Information
Wind Direction
  270 °
Wind Speed
  14 kt (16 mph)
Wind Gust
  00 kt (0 mph)
Altimeter
30.25 in
Visibility
10 SM
Temperature
-01° C
30° F
Dewpoint
-06° C
21° F
Humidity
69%
1hr Rain Fall
00.00 in.
24hr Rain Fall
00.00 in.
Sky Condition
Clear
VFR

METAR KMJQ 141853Z AUTO 27014KT 10SM CLR M01/M06 A3025 RMK AO2

FAA Disclaimer: The data displayed is for advisory purposes only and is not to be used for flight planning or operations.